sensor_id;sensor_type;location;lat;lon;timestamp;temperature;humidity
871;DHT22;422;51.280;7.236;2023-06-10T00:00:07;18.20;99.90
871;DHT22;422;51.280;7.236;2023-06-10T00:02:40;18.30;99.90
871;DHT22;422;51.280;7.236;2023-06-10T00:05:08;18.30;99.90
871;DHT22;422;51.280;7.236;2023-06-10T00:07:36;18.20;99.90
871;DHT22;422;51.280;7.236;2023-06-10T00:10:05;18.10;99.90
871;DHT22;422;51.280;7.236;2023-06-10T00:12:32;18.10;99.90
871;DHT22;422;51.280;7.236;2023-06-10T00:15:05;18.00;99.90
871;DHT22;422;51.280;7.236;2023-06-10T00:17:32;17.90;1.00
871;DHT22;422;51.280;7.236;2023-06-10T00:20:01;17.80;1.00
871;DHT22;422;51.280;7.236;2023-06-10T00:22:30;17.70;1.00
871;DHT22;422;51.280;7.236;2023-06-10T00:24:57;17.60;1.00
871;DHT22;422;51.280;7.236;2023-06-10T00:27:25;17.60;1.00
871;DHT22;422;51.280;7.236;2023-06-10T00:29:57;17.50;1.00
871;DHT22;422;51.280;7.236;2023-06-10T00:32:24;17.40;1.00
871;DHT22;422;51.280;7.236;2023-06-10T00:34:51;17.40;8.30
871;DHT22;422;51.280;7.236;2023-06-10T00:37:20;17.40;1.00
871;DHT22;422;51.280;7.236;2023-06-10T00:39:47;17.40;9.10
871;DHT22;422;51.280;7.236;2023-06-10T00:42:14;17.40;19.90
871;DHT22;422;51.280;7.236;2023-06-10T00:44:41;17.30;52.10
871;DHT22;422;51.280;7.236;2023-06-10T00:47:09;17.30;1.00
871;DHT22;422;51.280;7.236;2023-06-10T00:49:36;17.30;1.00
871;DHT22;422;51.280;7.236;2023-06-10T00:52:04;17.20;1.00
871;DHT22;422;51.280;7.236;2023-06-10T00:54:33;17.10;1.00
871;DHT22;422;51.280;7.236;2023-06-10T00:57:01;17.00;1.00
871;DHT22;422;51.280;7.236;2023-06-10T00:59:28;17.00;1.00
871;DHT22;422;51.280;7.236;2023-06-10T01:01:56;17.00;1.00
871;DHT22;422;51.280;7.236;2023-06-10T01:04:24;17.00;1.00
871;DHT22;422;51.280;7.236;2023-06-10T01:07:02;16.90;1.00
871;DHT22;422;51.280;7.236;2023-06-10T01:09:52;16.80;1.00
871;DHT22;422;51.280;7.236;2023-06-10T01:12:29;16.80;98.60
871;DHT22;422;51.280;7.236;2023-06-10T01:14:59;16.80;99.90
871;DHT22;422;51.280;7.236;2023-06-10T01:17:27;16.80;71.00
871;DHT22;422;51.280;7.236;2023-06-10T01:19:56;16.70;26.90
871;DHT22;422;51.280;7.236;2023-06-10T01:22:26;16.70;90.40
871;DHT22;422;51.280;7.236;2023-06-10T01:24:54;16.70;23.70
871;DHT22;422;51.280;7.236;2023-06-10T01:27:27;16.60;93.00
871;DHT22;422;51.280;7.236;2023-06-10T01:29:59;16.60;99.90
871;DHT22;422;51.280;7.236;2023-06-10T01:32:33;16.60;99.90
871;DHT22;422;51.280;7.236;2023-06-10T01:35:02;16.50;99.90
871;DHT22;422;51.280;7.236;2023-06-10T01:37:32;16.50;79.60
871;DHT22;422;51.280;7.236;2023-06-10T01:40:00;16.50;38.50
871;DHT22;422;51.280;7.236;2023-06-10T01:42:31;16.50;50.00
871;DHT22;422;51.280;7.236;2023-06-10T01:44:59;16.30;68.70
871;DHT22;422;51.280;7.236;2023-06-10T01:47:26;16.30;87.60
871;DHT22;422;51.280;7.236;2023-06-10T01:49:53;16.30;99.90
871;DHT22;422;51.280;7.236;2023-06-10T01:52:20;16.20;99.90
871;DHT22;422;51.280;7.236;2023-06-10T01:54:49;16.20;99.90
871;DHT22;422;51.280;7.236;2023-06-10T01:57:16;16.20;99.90
871;DHT22;422;51.280;7.236;2023-06-10T01:59:43;16.10;99.90
871;DHT22;422;51.280;7.236;2023-06-10T02:02:12;16.10;99.90
871;DHT22;422;51.280;7.236;2023-06-10T02:04:39;16.10;99.90
871;DHT22;422;51.280;7.236;2023-06-10T02:07:06;16.10;99.90
871;DHT22;422;51.280;7.236;2023-06-10T02:09:33;16.10;99.90
871;DHT22;422;51.280;7.236;2023-06-10T02:12:03;16.10;99.90
871;DHT22;422;51.280;7.236;2023-06-10T02:14:32;16.00;99.90
871;DHT22;422;51.280;7.236;2023-06-10T02:17:00;16.00;99.90
871;DHT22;422;51.280;7.236;2023-06-10T02:19:27;16.00;99.90
871;DHT22;422;51.280;7.236;2023-06-10T02:21:54;16.00;99.90
871;DHT22;422;51.280;7.236;2023-06-10T02:24:21;16.00;99.90
871;DHT22;422;51.280;7.236;2023-06-10T02:26:48;15.90;99.90
871;DHT22;422;51.280;7.236;2023-06-10T02:29:18;16.00;99.90
871;DHT22;422;51.280;7.236;2023-06-10T02:31:45;15.90;99.90
871;DHT22;422;51.280;7.236;2023-06-10T02:34:13;15.90;99.90
871;DHT22;422;51.280;7.236;2023-06-10T02:36:41;15.90;99.90
871;DHT22;422;51.280;7.236;2023-06-10T02:39:08;15.90;99.90
871;DHT22;422;51.280;7.236;2023-06-10T02:41:35;15.80;99.90
871;DHT22;422;51.280;7.236;2023-06-10T02:44:03;15.80;99.90
871;DHT22;422;51.280;7.236;2023-06-10T02:46:32;15.80;99.90
871;DHT22;422;51.280;7.236;2023-06-10T02:48:59;15.70;99.90
871;DHT22;422;51.280;7.236;2023-06-10T02:51:27;15.70;99.90
871;DHT22;422;51.280;7.236;2023-06-10T02:53:54;15.70;99.90
871;DHT22;422;51.280;7.236;2023-06-10T02:56:21;15.60;99.90
871;DHT22;422;51.280;7.236;2023-06-10T02:58:48;15.60;99.90
871;DHT22;422;51.280;7.236;2023-06-10T03:01:17;15.50;99.90
871;DHT22;422;51.280;7.236;2023-06-10T03:03:46;15.50;99.90
871;DHT22;422;51.280;7.236;2023-06-10T03:06:13;15.50;99.90
871;DHT22;422;51.280;7.236;2023-06-10T03:08:40;15.50;99.90
871;DHT22;422;51.280;7.236;2023-06-10T03:11:08;15.50;99.90
871;DHT22;422;51.280;7.236;2023-06-10T03:13:36;15.40;99.90
871;DHT22;422;51.280;7.236;2023-06-10T03:16:03;15.40;99.90
871;DHT22;422;51.280;7.236;2023-06-10T03:18:30;15.40;99.90
871;DHT22;422;51.280;7.236;2023-06-10T03:20:59;15.40;99.90
871;DHT22;422;51.280;7.236;2023-06-10T03:23:26;15.40;99.90
871;DHT22;422;51.280;7.236;2023-06-10T03:25:54;15.40;99.90
871;DHT22;422;51.280;7.236;2023-06-10T03:28:21;15.40;99.90
871;DHT22;422;51.280;7.236;2023-06-10T03:30:48;15.40;99.90
871;DHT22;422;51.280;7.236;2023-06-10T03:33:17;15.40;99.90
871;DHT22;422;51.280;7.236;2023-06-10T03:35:44;15.40;99.90
871;DHT22;422;51.280;7.236;2023-06-10T03:38:13;15.40;99.90
871;DHT22;422;51.280;7.236;2023-06-10T03:40:40;15.40;99.90
871;DHT22;422;51.280;7.236;2023-06-10T03:43:07;15.30;99.90
871;DHT22;422;51.280;7.236;2023-06-10T03:45:34;15.30;1.00
871;DHT22;422;51.280;7.236;2023-06-10T03:48:02;15.30;99.90
871;DHT22;422;51.280;7.236;2023-06-10T03:50:30;15.30;99.90
871;DHT22;422;51.280;7.236;2023-06-10T03:52:58;15.30;99.90
871;DHT22;422;51.280;7.236;2023-06-10T03:55:26;15.20;99.90
871;DHT22;422;51.280;7.236;2023-06-10T03:57:59;15.30;99.90
871;DHT22;422;51.280;7.236;2023-06-10T04:00:28;15.30;99.90
871;DHT22;422;51.280;7.236;2023-06-10T04:02:55;15.30;1.00
871;DHT22;422;51.280;7.236;2023-06-10T04:05:23;15.30;99.90
871;DHT22;422;51.280;7.236;2023-06-10T04:07:51;15.30;99.90
871;DHT22;422;51.280;7.236;2023-06-10T04:10:19;15.40;1.00
871;DHT22;422;51.280;7.236;2023-06-10T04:12:47;15.40;99.90
871;DHT22;422;51.280;7.236;2023-06-10T04:15:15;15.50;99.90
871;DHT22;422;51.280;7.236;2023-06-10T04:17:42;15.50;1.00
871;DHT22;422;51.280;7.236;2023-06-10T04:20:10;15.50;99.90
871;DHT22;422;51.280;7.236;2023-06-10T04:22:37;15.60;99.90
871;DHT22;422;51.280;7.236;2023-06-10T04:25:04;15.60;1.00
871;DHT22;422;51.280;7.236;2023-06-10T04:27:33;15.60;1.00
871;DHT22;422;51.280;7.236;2023-06-10T04:30:02;15.70;99.90
871;DHT22;422;51.280;7.236;2023-06-10T04:32:29;15.70;1.00
871;DHT22;422;51.280;7.236;2023-06-10T04:34:57;15.80;99.90
871;DHT22;422;51.280;7.236;2023-06-10T04:37:24;15.80;1.00
871;DHT22;422;51.280;7.236;2023-06-10T04:39:51;15.90;1.00
871;DHT22;422;51.280;7.236;2023-06-10T04:42:18;15.90;1.00
871;DHT22;422;51.280;7.236;2023-06-10T04:44:45;16.00;1.00
871;DHT22;422;51.280;7.236;2023-06-10T04:47:13;16.00;1.00
871;DHT22;422;51.280;7.236;2023-06-10T04:49:42;16.10;1.00
871;DHT22;422;51.280;7.236;2023-06-10T04:52:10;16.10;1.00
871;DHT22;422;51.280;7.236;2023-06-10T04:54:37;16.10;1.00
871;DHT22;422;51.280;7.236;2023-06-10T04:57:06;16.20;1.00
871;DHT22;422;51.280;7.236;2023-06-10T04:59:33;16.20;1.00
871;DHT22;422;51.280;7.236;2023-06-10T05:02:03;16.30;1.00
871;DHT22;422;51.280;7.236;2023-06-10T05:04:32;16.40;1.00
871;DHT22;422;51.280;7.236;2023-06-10T05:06:59;16.50;99.90
871;DHT22;422;51.280;7.236;2023-06-10T05:09:26;16.60;99.90
871;DHT22;422;51.280;7.236;2023-06-10T05:11:53;16.70;99.90
871;DHT22;422;51.280;7.236;2023-06-10T05:14:21;16.70;99.90
871;DHT22;422;51.280;7.236;2023-06-10T05:16:48;16.90;99.90
871;DHT22;422;51.280;7.236;2023-06-10T05:19:15;17.00;99.90
871;DHT22;422;51.280;7.236;2023-06-10T05:21:44;17.10;99.90
871;DHT22;422;51.280;7.236;2023-06-10T05:24:12;17.20;99.90
871;DHT22;422;51.280;7.236;2023-06-10T05:26:39;17.30;71.40
871;DHT22;422;51.280;7.236;2023-06-10T05:29:07;17.40;95.30
871;DHT22;422;51.280;7.236;2023-06-10T05:31:34;17.50;32.30
871;DHT22;422;51.280;7.236;2023-06-10T05:34:01;17.70;1.00
871;DHT22;422;51.280;7.236;2023-06-10T05:36:29;17.80;1.00
871;DHT22;422;51.280;7.236;2023-06-10T05:38:57;18.00;22.90
871;DHT22;422;51.280;7.236;2023-06-10T05:41:24;18.10;1.00
871;DHT22;422;51.280;7.236;2023-06-10T05:43:52;18.30;1.00
871;DHT22;422;51.280;7.236;2023-06-10T05:46:19;18.60;99.90
871;DHT22;422;51.280;7.236;2023-06-10T05:48:47;18.90;99.90
871;DHT22;422;51.280;7.236;2023-06-10T05:51:14;19.10;99.90
871;DHT22;422;51.280;7.236;2023-06-10T05:53:41;19.30;99.90
871;DHT22;422;51.280;7.236;2023-06-10T05:56:09;19.70;99.90
871;DHT22;422;51.280;7.236;2023-06-10T05:58:37;20.00;99.90
871;DHT22;422;51.280;7.236;2023-06-10T06:01:04;20.30;72.40
871;DHT22;422;51.280;7.236;2023-06-10T06:03:31;20.50;1.00
871;DHT22;422;51.280;7.236;2023-06-10T06:05:58;20.70;1.00
871;DHT22;422;51.280;7.236;2023-06-10T06:08:25;20.90;1.00
871;DHT22;422;51.280;7.236;2023-06-10T06:10:52;21.20;1.00
871;DHT22;422;51.280;7.236;2023-06-10T06:13:21;21.40;99.90
871;DHT22;422;51.280;7.236;2023-06-10T06:15:48;21.50;99.90
871;DHT22;422;51.280;7.236;2023-06-10T06:18:15;21.70;99.90
871;DHT22;422;51.280;7.236;2023-06-10T06:20:44;21.90;99.90
871;DHT22;422;51.280;7.236;2023-06-10T06:23:11;22.10;99.90
871;DHT22;422;51.280;7.236;2023-06-10T06:25:39;22.30;1.00
871;DHT22;422;51.280;7.236;2023-06-10T06:28:06;22.50;1.00
871;DHT22;422;51.280;7.236;2023-06-10T06:30:36;22.60;1.00
871;DHT22;422;51.280;7.236;2023-06-10T06:33:03;22.80;1.00
871;DHT22;422;51.280;7.236;2023-06-10T06:35:32;22.90;1.00
871;DHT22;422;51.280;7.236;2023-06-10T06:38:00;22.70;1.00
871;DHT22;422;51.280;7.236;2023-06-10T06:40:27;22.70;1.00
871;DHT22;422;51.280;7.236;2023-06-10T06:42:54;23.20;1.00
871;DHT22;422;51.280;7.236;2023-06-10T06:45:21;23.50;1.00
871;DHT22;422;51.280;7.236;2023-06-10T06:47:50;23.80;1.00
871;DHT22;422;51.280;7.236;2023-06-10T06:50:17;24.00;1.00
871;DHT22;422;51.280;7.236;2023-06-10T06:52:44;24.20;1.00
871;DHT22;422;51.280;7.236;2023-06-10T06:55:11;24.50;99.90
871;DHT22;422;51.280;7.236;2023-06-10T06:57:38;24.70;1.00
871;DHT22;422;51.280;7.236;2023-06-10T07:00:07;24.70;1.00
871;DHT22;422;51.280;7.236;2023-06-10T07:02:35;24.90;99.90
871;DHT22;422;51.280;7.236;2023-06-10T07:05:04;24.90;99.90
871;DHT22;422;51.280;7.236;2023-06-10T07:07:31;25.00;99.90
871;DHT22;422;51.280;7.236;2023-06-10T07:09:58;25.30;99.90
871;DHT22;422;51.280;7.236;2023-06-10T07:12:25;25.40;99.90
871;DHT22;422;51.280;7.236;2023-06-10T07:14:53;25.60;99.90
871;DHT22;422;51.280;7.236;2023-06-10T07:17:20;25.80;99.90
871;DHT22;422;51.280;7.236;2023-06-10T07:19:47;26.00;99.90
871;DHT22;422;51.280;7.236;2023-06-10T07:22:16;26.10;99.90
871;DHT22;422;51.280;7.236;2023-06-10T07:24:43;26.30;99.90
871;DHT22;422;51.280;7.236;2023-06-10T07:27:10;26.30;99.90
871;DHT22;422;51.280;7.236;2023-06-10T07:29:37;26.50;99.90
871;DHT22;422;51.280;7.236;2023-06-10T07:32:05;26.50;99.90
871;DHT22;422;51.280;7.236;2023-06-10T07:34:32;26.70;99.90
871;DHT22;422;51.280;7.236;2023-06-10T07:36:59;26.90;99.90
871;DHT22;422;51.280;7.236;2023-06-10T07:39:27;27.20;99.90
871;DHT22;422;51.280;7.236;2023-06-10T07:41:55;27.60;99.90
871;DHT22;422;51.280;7.236;2023-06-10T07:44:23;27.70;99.90
871;DHT22;422;51.280;7.236;2023-06-10T07:46:50;28.00;99.90
871;DHT22;422;51.280;7.236;2023-06-10T07:49:18;27.70;99.90
871;DHT22;422;51.280;7.236;2023-06-10T07:51:45;27.70;99.90
871;DHT22;422;51.280;7.236;2023-06-10T07:54:12;28.00;99.90
871;DHT22;422;51.280;7.236;2023-06-10T07:56:41;28.20;99.90
871;DHT22;422;51.280;7.236;2023-06-10T07:59:08;28.30;99.90
871;DHT22;422;51.280;7.236;2023-06-10T08:01:35;28.50;99.90
871;DHT22;422;51.280;7.236;2023-06-10T08:04:05;28.50;29.40
871;DHT22;422;51.280;7.236;2023-06-10T08:06:33;28.50;27.50
871;DHT22;422;51.280;7.236;2023-06-10T08:09:00;28.70;33.90
871;DHT22;422;51.280;7.236;2023-06-10T08:11:27;28.90;20.70
871;DHT22;422;51.280;7.236;2023-06-10T08:13:56;28.80;36.10
871;DHT22;422;51.280;7.236;2023-06-10T08:16:24;29.10;22.10
871;DHT22;422;51.280;7.236;2023-06-10T08:18:51;29.30;34.50
871;DHT22;422;51.280;7.236;2023-06-10T08:21:18;29.60;39.30
871;DHT22;422;51.280;7.236;2023-06-10T08:23:46;30.00;39.30
871;DHT22;422;51.280;7.236;2023-06-10T08:26:13;30.00;1.00
871;DHT22;422;51.280;7.236;2023-06-10T08:28:40;29.70;1.00
871;DHT22;422;51.280;7.236;2023-06-10T08:31:09;30.10;1.00
871;DHT22;422;51.280;7.236;2023-06-10T08:33:36;30.30;1.00
871;DHT22;422;51.280;7.236;2023-06-10T08:36:03;30.00;1.00
871;DHT22;422;51.280;7.236;2023-06-10T08:38:30;30.10;1.00
871;DHT22;422;51.280;7.236;2023-06-10T08:40:59;29.80;1.00
871;DHT22;422;51.280;7.236;2023-06-10T08:43:32;29.50;1.00
871;DHT22;422;51.280;7.236;2023-06-10T08:46:01;29.50;1.00
871;DHT22;422;51.280;7.236;2023-06-10T08:48:31;29.80;1.00
871;DHT22;422;51.280;7.236;2023-06-10T08:51:00;30.10;1.00
871;DHT22;422;51.280;7.236;2023-06-10T08:53:30;30.20;1.00
871;DHT22;422;51.280;7.236;2023-06-10T08:56:00;30.10;1.00
871;DHT22;422;51.280;7.236;2023-06-10T08:58:29;30.30;1.00
871;DHT22;422;51.280;7.236;2023-06-10T09:00:57;30.30;1.00
871;DHT22;422;51.280;7.236;2023-06-10T09:03:25;30.40;1.00
871;DHT22;422;51.280;7.236;2023-06-10T09:05:55;30.00;1.00
871;DHT22;422;51.280;7.236;2023-06-10T09:08:24;29.90;1.00
871;DHT22;422;51.280;7.236;2023-06-10T09:10:51;30.50;1.00
871;DHT22;422;51.280;7.236;2023-06-10T09:13:19;31.00;1.00
871;DHT22;422;51.280;7.236;2023-06-10T09:15:46;31.50;85.80
871;DHT22;422;51.280;7.236;2023-06-10T09:18:15;31.80;1.00
871;DHT22;422;51.280;7.236;2023-06-10T09:20:43;31.80;1.00
871;DHT22;422;51.280;7.236;2023-06-10T09:23:12;32.00;1.00
871;DHT22;422;51.280;7.236;2023-06-10T09:25:40;31.50;1.00
871;DHT22;422;51.280;7.236;2023-06-10T09:28:13;30.30;1.00
871;DHT22;422;51.280;7.236;2023-06-10T09:30:41;30.60;1.00
871;DHT22;422;51.280;7.236;2023-06-10T09:33:11;30.60;99.90
871;DHT22;422;51.280;7.236;2023-06-10T09:35:45;30.80;99.90
871;DHT22;422;51.280;7.236;2023-06-10T09:38:20;31.10;96.90
871;DHT22;422;51.280;7.236;2023-06-10T09:40:52;31.90;99.90
871;DHT22;422;51.280;7.236;2023-06-10T09:43:19;31.80;99.90
871;DHT22;422;51.280;7.236;2023-06-10T09:45:48;32.30;99.90
871;DHT22;422;51.280;7.236;2023-06-10T09:48:15;32.10;99.90
871;DHT22;422;51.280;7.236;2023-06-10T09:50:43;31.30;56.40
871;DHT22;422;51.280;7.236;2023-06-10T09:53:11;31.40;1.00
871;DHT22;422;51.280;7.236;2023-06-10T09:55:40;32.20;32.50
871;DHT22;422;51.280;7.236;2023-06-10T09:58:08;32.70;94.30
871;DHT22;422;51.280;7.236;2023-06-10T10:00:36;32.20;50.50
871;DHT22;422;51.280;7.236;2023-06-10T10:03:03;32.40;1.00
871;DHT22;422;51.280;7.236;2023-06-10T10:05:32;32.70;95.30
871;DHT22;422;51.280;7.236;2023-06-10T10:07:59;32.60;99.90
871;DHT22;422;51.280;7.236;2023-06-10T10:10:27;32.50;1.00
871;DHT22;422;51.280;7.236;2023-06-10T10:12:56;33.00;1.00
871;DHT22;422;51.280;7.236;2023-06-10T10:15:25;33.30;1.00
871;DHT22;422;51.280;7.236;2023-06-10T10:18:00;33.40;1.00
871;DHT22;422;51.280;7.236;2023-06-10T10:20:33;33.40;1.00
871;DHT22;422;51.280;7.236;2023-06-10T10:23:03;33.60;1.00
871;DHT22;422;51.280;7.236;2023-06-10T10:25:35;33.40;1.00
871;DHT22;422;51.280;7.236;2023-06-10T10:28:07;33.10;1.00
871;DHT22;422;51.280;7.236;2023-06-10T10:30:40;33.50;1.00
871;DHT22;422;51.280;7.236;2023-06-10T10:33:13;33.50;1.00
871;DHT22;422;51.280;7.236;2023-06-10T10:35:43;31.80;1.00
871;DHT22;422;51.280;7.236;2023-06-10T10:38:12;32.10;1.00
871;DHT22;422;51.280;7.236;2023-06-10T10:40:39;32.60;99.90
871;DHT22;422;51.280;7.236;2023-06-10T10:43:09;32.70;99.90
871;DHT22;422;51.280;7.236;2023-06-10T10:45:37;33.50;1.00
871;DHT22;422;51.280;7.236;2023-06-10T10:48:07;34.00;1.00
871;DHT22;422;51.280;7.236;2023-06-10T10:50:37;34.50;1.00
871;DHT22;422;51.280;7.236;2023-06-10T10:53:06;33.20;1.00
871;DHT22;422;51.280;7.236;2023-06-10T10:55:33;33.20;99.90
871;DHT22;422;51.280;7.236;2023-06-10T10:58:03;33.80;1.00
871;DHT22;422;51.280;7.236;2023-06-10T11:00:34;34.20;1.00
871;DHT22;422;51.280;7.236;2023-06-10T11:03:06;33.90;1.00
871;DHT22;422;51.280;7.236;2023-06-10T11:05:38;33.70;99.90
871;DHT22;422;51.280;7.236;2023-06-10T11:08:07;33.60;99.90
871;DHT22;422;51.280;7.236;2023-06-10T11:10:35;33.20;99.90
871;DHT22;422;51.280;7.236;2023-06-10T11:13:07;32.80;99.90
871;DHT22;422;51.280;7.236;2023-06-10T11:15:43;32.30;99.90
871;DHT22;422;51.280;7.236;2023-06-10T11:18:20;31.80;99.90
871;DHT22;422;51.280;7.236;2023-06-10T11:20:59;30.80;99.90
871;DHT22;422;51.280;7.236;2023-06-10T11:23:40;31.00;99.90
871;DHT22;422;51.280;7.236;2023-06-10T11:26:18;31.40;99.90
871;DHT22;422;51.280;7.236;2023-06-10T11:29:07;31.50;99.90
871;DHT22;422;51.280;7.236;2023-06-10T11:31:45;31.80;99.90
871;DHT22;422;51.280;7.236;2023-06-10T11:34:13;31.70;99.90
871;DHT22;422;51.280;7.236;2023-06-10T11:36:42;31.40;99.90
871;DHT22;422;51.280;7.236;2023-06-10T11:39:12;31.10;99.90
871;DHT22;422;51.280;7.236;2023-06-10T11:41:40;31.40;99.90
871;DHT22;422;51.280;7.236;2023-06-10T11:44:11;32.30;99.90
871;DHT22;422;51.280;7.236;2023-06-10T11:46:39;33.00;99.90
871;DHT22;422;51.280;7.236;2023-06-10T11:49:09;32.90;99.90
871;DHT22;422;51.280;7.236;2023-06-10T11:51:38;33.60;99.90
871;DHT22;422;51.280;7.236;2023-06-10T11:54:08;33.60;99.90
871;DHT22;422;51.280;7.236;2023-06-10T11:56:35;33.60;99.90
871;DHT22;422;51.280;7.236;2023-06-10T11:59:04;32.90;99.90
871;DHT22;422;51.280;7.236;2023-06-10T12:01:34;33.00;99.90
871;DHT22;422;51.280;7.236;2023-06-10T12:04:03;33.00;99.90
871;DHT22;422;51.280;7.236;2023-06-10T12:06:42;33.20;99.90
871;DHT22;422;51.280;7.236;2023-06-10T12:09:14;33.40;99.90
871;DHT22;422;51.280;7.236;2023-06-10T12:11:42;33.50;99.90
871;DHT22;422;51.280;7.236;2023-06-10T12:14:10;34.20;99.90
871;DHT22;422;51.280;7.236;2023-06-10T12:16:37;33.80;99.90
871;DHT22;422;51.280;7.236;2023-06-10T12:19:05;33.90;99.90
871;DHT22;422;51.280;7.236;2023-06-10T12:21:33;33.30;99.90
871;DHT22;422;51.280;7.236;2023-06-10T12:24:04;32.60;99.90
871;DHT22;422;51.280;7.236;2023-06-10T12:26:39;32.30;99.90
871;DHT22;422;51.280;7.236;2023-06-10T12:29:17;32.10;99.90
871;DHT22;422;51.280;7.236;2023-06-10T12:31:58;32.20;99.90
871;DHT22;422;51.280;7.236;2023-06-10T12:34:36;32.20;99.90
871;DHT22;422;51.280;7.236;2023-06-10T12:37:04;33.00;99.90
871;DHT22;422;51.280;7.236;2023-06-10T12:39:34;33.50;99.90
871;DHT22;422;51.280;7.236;2023-06-10T12:42:01;34.00;99.90
871;DHT22;422;51.280;7.236;2023-06-10T12:44:30;34.30;99.90
871;DHT22;422;51.280;7.236;2023-06-10T12:46:57;33.80;99.90
871;DHT22;422;51.280;7.236;2023-06-10T12:49:24;34.30;99.90
871;DHT22;422;51.280;7.236;2023-06-10T12:51:52;34.50;99.90
871;DHT22;422;51.280;7.236;2023-06-10T12:54:19;34.30;99.90
871;DHT22;422;51.280;7.236;2023-06-10T12:56:48;34.20;99.90
871;DHT22;422;51.280;7.236;2023-06-10T12:59:15;33.30;99.90
871;DHT22;422;51.280;7.236;2023-06-10T13:01:42;32.80;99.90
871;DHT22;422;51.280;7.236;2023-06-10T13:04:09;33.10;99.90
871;DHT22;422;51.280;7.236;2023-06-10T13:06:37;33.50;99.90
871;DHT22;422;51.280;7.236;2023-06-10T13:09:05;34.10;99.90
871;DHT22;422;51.280;7.236;2023-06-10T13:11:36;34.60;99.90
871;DHT22;422;51.280;7.236;2023-06-10T13:14:05;34.90;99.90
871;DHT22;422;51.280;7.236;2023-06-10T13:16:32;35.00;99.90
871;DHT22;422;51.280;7.236;2023-06-10T13:19:00;34.70;99.90
871;DHT22;422;51.280;7.236;2023-06-10T13:21:28;34.80;99.90
871;DHT22;422;51.280;7.236;2023-06-10T13:23:55;35.10;99.90
871;DHT22;422;51.280;7.236;2023-06-10T13:26:22;34.30;99.90
871;DHT22;422;51.280;7.236;2023-06-10T13:28:50;34.40;99.90
871;DHT22;422;51.280;7.236;2023-06-10T13:31:19;35.10;99.90
871;DHT22;422;51.280;7.236;2023-06-10T13:33:47;35.00;99.90
871;DHT22;422;51.280;7.236;2023-06-10T13:36:15;34.40;99.90
871;DHT22;422;51.280;7.236;2023-06-10T13:38:42;34.70;99.90
871;DHT22;422;51.280;7.236;2023-06-10T13:41:09;35.30;99.90
871;DHT22;422;51.280;7.236;2023-06-10T13:43:38;35.40;99.90
871;DHT22;422;51.280;7.236;2023-06-10T13:46:05;35.60;99.90
871;DHT22;422;51.280;7.236;2023-06-10T13:48:34;36.10;99.90
871;DHT22;422;51.280;7.236;2023-06-10T13:51:02;35.70;99.90
871;DHT22;422;51.280;7.236;2023-06-10T13:53:29;35.40;99.90
871;DHT22;422;51.280;7.236;2023-06-10T13:55:56;35.20;99.90
871;DHT22;422;51.280;7.236;2023-06-10T13:58:24;35.30;99.90
871;DHT22;422;51.280;7.236;2023-06-10T14:00:51;34.90;99.90
871;DHT22;422;51.280;7.236;2023-06-10T14:03:19;35.00;99.90
871;DHT22;422;51.280;7.236;2023-06-10T14:05:47;35.30;99.90
871;DHT22;422;51.280;7.236;2023-06-10T14:08:15;35.60;99.90
871;DHT22;422;51.280;7.236;2023-06-10T14:10:42;35.40;99.90
871;DHT22;422;51.280;7.236;2023-06-10T14:13:09;35.20;99.90
871;DHT22;422;51.280;7.236;2023-06-10T14:15:37;35.20;99.90
871;DHT22;422;51.280;7.236;2023-06-10T14:18:05;34.70;1.00
871;DHT22;422;51.280;7.236;2023-06-10T14:20:35;34.60;1.00
871;DHT22;422;51.280;7.236;2023-06-10T14:23:03;34.50;99.90
871;DHT22;422;51.280;7.236;2023-06-10T14:25:31;34.60;1.00
871;DHT22;422;51.280;7.236;2023-06-10T14:27:58;34.80;1.00
871;DHT22;422;51.280;7.236;2023-06-10T14:30:25;34.60;1.00
871;DHT22;422;51.280;7.236;2023-06-10T14:32:52;34.00;1.00
871;DHT22;422;51.280;7.236;2023-06-10T14:35:20;33.20;1.00
871;DHT22;422;51.280;7.236;2023-06-10T14:37:47;32.60;1.00
871;DHT22;422;51.280;7.236;2023-06-10T14:40:16;31.90;1.00
871;DHT22;422;51.280;7.236;2023-06-10T14:42:43;31.70;1.00
871;DHT22;422;51.280;7.236;2023-06-10T14:45:11;32.40;1.00
871;DHT22;422;51.280;7.236;2023-06-10T14:47:38;32.90;1.00
871;DHT22;422;51.280;7.236;2023-06-10T14:50:05;32.70;1.00
871;DHT22;422;51.280;7.236;2023-06-10T14:52:33;32.70;1.00
871;DHT22;422;51.280;7.236;2023-06-10T14:55:00;33.10;1.00
871;DHT22;422;51.280;7.236;2023-06-10T14:57:28;33.40;1.00
871;DHT22;422;51.280;7.236;2023-06-10T14:59:55;33.20;1.00
871;DHT22;422;51.280;7.236;2023-06-10T15:02:23;33.00;1.00
871;DHT22;422;51.280;7.236;2023-06-10T15:04:50;33.10;1.00
871;DHT22;422;51.280;7.236;2023-06-10T15:07:17;33.30;1.00
871;DHT22;422;51.280;7.236;2023-06-10T15:09:44;32.70;1.00
871;DHT22;422;51.280;7.236;2023-06-10T15:12:11;32.50;1.00
871;DHT22;422;51.280;7.236;2023-06-10T15:14:40;32.80;1.00
871;DHT22;422;51.280;7.236;2023-06-10T15:17:07;32.70;1.00
871;DHT22;422;51.280;7.236;2023-06-10T15:19:34;32.20;1.00
871;DHT22;422;51.280;7.236;2023-06-10T15:22:01;31.80;1.00
871;DHT22;422;51.280;7.236;2023-06-10T15:24:29;31.50;1.00
871;DHT22;422;51.280;7.236;2023-06-10T15:26:56;31.40;1.00
871;DHT22;422;51.280;7.236;2023-06-10T15:29:23;31.20;1.00
871;DHT22;422;51.280;7.236;2023-06-10T15:31:52;31.20;1.00
871;DHT22;422;51.280;7.236;2023-06-10T15:34:19;31.00;1.00
871;DHT22;422;51.280;7.236;2023-06-10T15:36:46;30.80;1.00
871;DHT22;422;51.280;7.236;2023-06-10T15:39:13;30.60;1.00
871;DHT22;422;51.280;7.236;2023-06-10T15:41:41;30.40;1.00
871;DHT22;422;51.280;7.236;2023-06-10T15:44:08;30.20;1.00
871;DHT22;422;51.280;7.236;2023-06-10T15:46:35;30.30;1.00
871;DHT22;422;51.280;7.236;2023-06-10T15:49:04;30.80;1.00
871;DHT22;422;51.280;7.236;2023-06-10T15:51:31;31.30;1.00
871;DHT22;422;51.280;7.236;2023-06-10T15:53:58;31.80;1.00
871;DHT22;422;51.280;7.236;2023-06-10T15:56:26;32.30;1.00
871;DHT22;422;51.280;7.236;2023-06-10T15:58:53;32.60;1.00
871;DHT22;422;51.280;7.236;2023-06-10T16:01:20;32.40;1.00
871;DHT22;422;51.280;7.236;2023-06-10T16:03:47;32.20;1.00
871;DHT22;422;51.280;7.236;2023-06-10T16:06:16;31.40;1.00
871;DHT22;422;51.280;7.236;2023-06-10T16:08:43;30.90;1.00
871;DHT22;422;51.280;7.236;2023-06-10T16:11:11;30.40;1.00
871;DHT22;422;51.280;7.236;2023-06-10T16:13:38;30.10;1.00
871;DHT22;422;51.280;7.236;2023-06-10T16:16:06;30.00;1.00
871;DHT22;422;51.280;7.236;2023-06-10T16:18:34;30.20;1.00
871;DHT22;422;51.280;7.236;2023-06-10T16:21:01;30.60;1.00
871;DHT22;422;51.280;7.236;2023-06-10T16:23:30;31.00;1.00
871;DHT22;422;51.280;7.236;2023-06-10T16:25:57;31.20;1.00
871;DHT22;422;51.280;7.236;2023-06-10T16:28:25;31.40;1.00
871;DHT22;422;51.280;7.236;2023-06-10T16:30:52;31.70;99.90
871;DHT22;422;51.280;7.236;2023-06-10T16:33:19;31.50;99.90
871;DHT22;422;51.280;7.236;2023-06-10T16:35:46;31.40;1.00
871;DHT22;422;51.280;7.236;2023-06-10T16:38:13;31.20;1.00
871;DHT22;422;51.280;7.236;2023-06-10T16:40:42;31.00;99.90
871;DHT22;422;51.280;7.236;2023-06-10T16:43:09;30.90;99.90
871;DHT22;422;51.280;7.236;2023-06-10T16:45:36;30.80;99.90
871;DHT22;422;51.280;7.236;2023-06-10T16:48:04;30.80;99.90